Airfield :







YOU CAN JOIN US ON...

 
LOGIN :

Register | Disclaimer

   EN    FR    IT 

 









Legend :    VFR   Marginal VFR   IFR   Intensive IFR   Very Intensive IFR
Visi :
Ceiling :
>= 8 km
>= 3000ft
5 to 8 km
1000 to 3000 ft
1500m to 5 km
500 to 1000 ft
800 to 1500m
200 to 500 ft
< 800m
< 200 ft
Symbols :   Thunderstorms  Fog  Heavy snow  Heavy precipitations  Wind > 20 kt







- Airport Elevation : 228 ft


KFSO - Franklin County State

CURRENT METAR :
  • 200556Z AUTO 35007KT 3SM RA OVC003 05/05 A2968 RMK AO2 T00520052 10058 20051

EXPIRED METARs :
  • 200535Z AUTO 34005KT 2SM SN OVC003 05/05 A2970 RMK AO2 T00540054
  • 200516Z AUTO 27005KT 4SM RA OVC005 05/05 A2972 RMK AO2 T00530053
  • 200456Z AUTO 36003KT 7SM -RA BKN002 OVC007 06/06 A2970 RMK AO2 T00550055 401850051
  • 200436Z AUTO 01005KT 7SM RA BKN002 OVC007 05/05 A2970 RMK AO2 T00540054
  • 200416Z AUTO 34003KT 2 1/2SM -RA BKN005 BKN009 OVC016 06/06 A2971 RMK AO2 T00550055
  • 200355Z AUTO 36003KT 1 1/2SM SN BKN007 OVC010 06/06 A2973 RMK AO2 T00550055
  • 200336Z AUTO 36004KT 3SM RA BKN005 BKN023 OVC029 06/06 A2973 RMK AO2 T00550055
  • 200316Z AUTO 36007KT 7SM RA OVC007 05/05 A2974 RMK AO2 T00530053

TAF N/A
KZBW FIR / North America



MET'MAP, your aeronautical weather chart ! - Copyright ORBIFLY December 2007 - Disclaimer

ORBIFLY MET'MAP TEAM :

Programming & Development : Alexandra Zaïnal
Concept & Development : Baudouin d'Aumeries
Co-Development & Prog : Marc-Olivier Méhu
Technical & hardware support : Manuel Goepfert

Contact : metmap@orbifly.com




SOURCES & CREDITS :

   NOAA